Archival Weather

Tcnl Rafael Pabon

Tcnl Rafael Pabon, Bolivia (SLVM)

Report from: Thursday, December 7, 2023 8:00 AM -04
Current time: Tuesday, April 23, 2024 2:51 AM -04

Current weather – Weather history – Daily summaries
Weather forecast

Present weatherLight drizzle
Temperature24.0°C (75.2°F)
Dew point23.0°C (73.4°F)
Winds Calm
Visibility3.1 mi. (5 km)
Clouds Few clouds 800 ft. (244 m)
Scattered clouds 2,300 ft. (701 m)
Ceiling: Overcast 7,000 ft. (2,134 m)
Altimeter29.94 in.Hg (1014 mB)
Relative humidity94 %
Density altitude1,396 ft. (425 m)
Flight conditions Marginal Visual Meteorological Conditions
Raw dataSLVM 071200Z 00000KT 5000 -DZ FEW008 SCT023 OVC070 24/23 Q1014
An error has occurred. This application may no longer respond until reloaded. Reload 🗙